sensor_id;sensor_type;location;lat;lon;timestamp;temperature;humidity
69533;DHT22;56729;52.036;5.332;2023-04-02T00:00:36;7.60;99.90
69533;DHT22;56729;52.036;5.332;2023-04-02T00:02:26;7.60;99.90
69533;DHT22;56729;52.036;5.332;2023-04-02T00:04:43;7.60;99.90
69533;DHT22;56729;52.036;5.332;2023-04-02T00:05:45;7.60;99.90
69533;DHT22;56729;52.036;5.332;2023-04-02T00:07:23;7.60;99.90
69533;DHT22;56729;52.036;5.332;2023-04-02T00:08:39;7.60;99.90
69533;DHT22;56729;52.036;5.332;2023-04-02T00:09:41;7.60;99.90
69533;DHT22;56729;52.036;5.332;2023-04-02T00:11:09;7.50;99.90
69533;DHT22;56729;52.036;5.332;2023-04-02T00:12:17;7.50;99.90
69533;DHT22;56729;52.036;5.332;2023-04-02T00:13:28;7.50;99.90
69533;DHT22;56729;52.036;5.332;2023-04-02T00:14:32;7.50;99.90
69533;DHT22;56729;52.036;5.332;2023-04-02T00:15:35;7.50;99.90
69533;DHT22;56729;52.036;5.332;2023-04-02T00:16:37;7.50;99.90
69533;DHT22;56729;52.036;5.332;2023-04-02T00:17:39;7.50;99.90
69533;DHT22;56729;52.036;5.332;2023-04-02T00:18:46;7.50;99.90
69533;DHT22;56729;52.036;5.332;2023-04-02T00:20:02;7.50;99.90
69533;DHT22;56729;52.036;5.332;2023-04-02T00:21:17;7.50;99.90
69533;DHT22;56729;52.036;5.332;2023-04-02T00:22:25;7.50;99.90
69533;DHT22;56729;52.036;5.332;2023-04-02T00:23:27;7.50;99.90
69533;DHT22;56729;52.036;5.332;2023-04-02T00:24:29;7.50;99.90
69533;DHT22;56729;52.036;5.332;2023-04-02T00:25:35;7.50;99.90
69533;DHT22;56729;52.036;5.332;2023-04-02T00:26:42;7.50;99.90
69533;DHT22;56729;52.036;5.332;2023-04-02T00:27:44;7.50;99.90
69533;DHT22;56729;52.036;5.332;2023-04-02T00:28:46;7.50;99.90
69533;DHT22;56729;52.036;5.332;2023-04-02T00:29:51;7.50;99.90
69533;DHT22;56729;52.036;5.332;2023-04-02T00:30:57;7.50;99.90
69533;DHT22;56729;52.036;5.332;2023-04-02T00:31:59;7.50;99.90
69533;DHT22;56729;52.036;5.332;2023-04-02T00:33:02;7.50;99.90
69533;DHT22;56729;52.036;5.332;2023-04-02T00:34:07;7.50;99.90
69533;DHT22;56729;52.036;5.332;2023-04-02T00:35:22;7.50;99.90
69533;DHT22;56729;52.036;5.332;2023-04-02T00:36:29;7.50;99.90
69533;DHT22;56729;52.036;5.332;2023-04-02T00:37:31;7.50;99.90
69533;DHT22;56729;52.036;5.332;2023-04-02T00:38:41;7.50;99.90
69533;DHT22;56729;52.036;5.332;2023-04-02T00:39:45;7.50;99.90
69533;DHT22;56729;52.036;5.332;2023-04-02T00:40:47;7.50;99.90
69533;DHT22;56729;52.036;5.332;2023-04-02T00:41:54;7.50;99.90
69533;DHT22;56729;52.036;5.332;2023-04-02T00:43:07;7.40;99.90
69533;DHT22;56729;52.036;5.332;2023-04-02T00:44:11;7.40;99.90
69533;DHT22;56729;52.036;5.332;2023-04-02T00:45:28;7.40;99.90
69533;DHT22;56729;52.036;5.332;2023-04-02T00:46:39;7.40;99.90
69533;DHT22;56729;52.036;5.332;2023-04-02T00:47:48;7.40;99.90
69533;DHT22;56729;52.036;5.332;2023-04-02T00:49:13;7.40;99.90
69533;DHT22;56729;52.036;5.332;2023-04-02T00:50:34;7.40;99.90
69533;DHT22;56729;52.036;5.332;2023-04-02T00:51:45;7.30;99.90
69533;DHT22;56729;52.036;5.332;2023-04-02T00:52:50;7.40;99.90
69533;DHT22;56729;52.036;5.332;2023-04-02T00:53:55;7.40;99.90
69533;DHT22;56729;52.036;5.332;2023-04-02T00:56:21;7.40;99.90
69533;DHT22;56729;52.036;5.332;2023-04-02T00:57:26;7.40;99.90
69533;DHT22;56729;52.036;5.332;2023-04-02T00:58:32;7.30;99.90
69533;DHT22;56729;52.036;5.332;2023-04-02T00:59:47;7.30;99.90
69533;DHT22;56729;52.036;5.332;2023-04-02T01:00:50;7.30;99.90
69533;DHT22;56729;52.036;5.332;2023-04-02T01:01:59;7.30;99.90
69533;DHT22;56729;52.036;5.332;2023-04-02T01:04:33;7.30;99.90
69533;DHT22;56729;52.036;5.332;2023-04-02T01:05:35;7.30;99.90
69533;DHT22;56729;52.036;5.332;2023-04-02T01:06:38;7.30;99.90
69533;DHT22;56729;52.036;5.332;2023-04-02T01:08:04;7.30;99.90
69533;DHT22;56729;52.036;5.332;2023-04-02T01:09:23;7.30;99.90
69533;DHT22;56729;52.036;5.332;2023-04-02T01:15:18;7.30;99.90
69533;DHT22;56729;52.036;5.332;2023-04-02T01:19:34;7.30;99.90
69533;DHT22;56729;52.036;5.332;2023-04-02T01:21:06;7.20;99.90
69533;DHT22;56729;52.036;5.332;2023-04-02T01:22:25;7.20;99.90
69533;DHT22;56729;52.036;5.332;2023-04-02T01:23:52;7.20;99.90
69533;DHT22;56729;52.036;5.332;2023-04-02T01:24:58;7.20;99.90
69533;DHT22;56729;52.036;5.332;2023-04-02T01:27:25;7.20;99.90
69533;DHT22;56729;52.036;5.332;2023-04-02T01:29:52;7.20;99.90
69533;DHT22;56729;52.036;5.332;2023-04-02T01:30:57;7.20;99.90
69533;DHT22;56729;52.036;5.332;2023-04-02T01:32:06;7.20;99.90
69533;DHT22;56729;52.036;5.332;2023-04-02T01:33:11;7.20;99.90
69533;DHT22;56729;52.036;5.332;2023-04-02T01:34:17;7.20;99.90
69533;DHT22;56729;52.036;5.332;2023-04-02T01:35:20;7.20;99.90
69533;DHT22;56729;52.036;5.332;2023-04-02T01:38:09;7.20;99.90
69533;DHT22;56729;52.036;5.332;2023-04-02T01:39:36;7.10;99.90
69533;DHT22;56729;52.036;5.332;2023-04-02T01:42:16;7.10;99.90
69533;DHT22;56729;52.036;5.332;2023-04-02T01:43:31;7.10;99.90
69533;DHT22;56729;52.036;5.332;2023-04-02T01:44:38;7.10;99.90
69533;DHT22;56729;52.036;5.332;2023-04-02T01:45:42;7.00;99.90
69533;DHT22;56729;52.036;5.332;2023-04-02T01:46:47;7.00;99.90
69533;DHT22;56729;52.036;5.332;2023-04-02T01:47:50;7.00;99.90
69533;DHT22;56729;52.036;5.332;2023-04-02T01:48:53;7.00;99.90
69533;DHT22;56729;52.036;5.332;2023-04-02T01:50:02;7.00;99.90
69533;DHT22;56729;52.036;5.332;2023-04-02T01:51:06;7.00;99.90
69533;DHT22;56729;52.036;5.332;2023-04-02T01:52:16;7.00;99.90
69533;DHT22;56729;52.036;5.332;2023-04-02T01:53:20;7.00;99.90
69533;DHT22;56729;52.036;5.332;2023-04-02T01:54:24;7.00;99.90
69533;DHT22;56729;52.036;5.332;2023-04-02T01:55:53;7.00;99.90
69533;DHT22;56729;52.036;5.332;2023-04-02T01:56:54;7.00;99.90
69533;DHT22;56729;52.036;5.332;2023-04-02T01:57:59;7.00;99.90
69533;DHT22;56729;52.036;5.332;2023-04-02T01:59:02;7.00;99.90
69533;DHT22;56729;52.036;5.332;2023-04-02T02:00:16;6.90;99.90
69533;DHT22;56729;52.036;5.332;2023-04-02T02:01:30;6.90;99.90
69533;DHT22;56729;52.036;5.332;2023-04-02T02:02:32;6.90;99.90
69533;DHT22;56729;52.036;5.332;2023-04-02T02:03:42;6.90;99.90
69533;DHT22;56729;52.036;5.332;2023-04-02T02:04:46;6.90;99.90
69533;DHT22;56729;52.036;5.332;2023-04-02T02:05:49;6.90;99.90
69533;DHT22;56729;52.036;5.332;2023-04-02T02:06:51;6.80;99.90
69533;DHT22;56729;52.036;5.332;2023-04-02T02:07:55;6.80;99.90
69533;DHT22;56729;52.036;5.332;2023-04-02T02:09:00;6.80;99.90
69533;DHT22;56729;52.036;5.332;2023-04-02T02:10:04;6.80;99.90
69533;DHT22;56729;52.036;5.332;2023-04-02T02:11:09;6.80;99.90
69533;DHT22;56729;52.036;5.332;2023-04-02T02:12:13;6.80;99.90
69533;DHT22;56729;52.036;5.332;2023-04-02T02:13:15;6.80;99.90
69533;DHT22;56729;52.036;5.332;2023-04-02T02:14:28;6.80;99.90
69533;DHT22;56729;52.036;5.332;2023-04-02T02:15:31;6.80;99.90
69533;DHT22;56729;52.036;5.332;2023-04-02T02:16:37;6.80;99.90
69533;DHT22;56729;52.036;5.332;2023-04-02T02:17:42;6.80;99.90
69533;DHT22;56729;52.036;5.332;2023-04-02T02:18:50;6.80;99.90
69533;DHT22;56729;52.036;5.332;2023-04-02T02:19:55;6.80;99.90
69533;DHT22;56729;52.036;5.332;2023-04-02T02:20:59;6.80;99.90
69533;DHT22;56729;52.036;5.332;2023-04-02T02:23:27;6.80;99.90
69533;DHT22;56729;52.036;5.332;2023-04-02T02:24:32;6.80;99.90
69533;DHT22;56729;52.036;5.332;2023-04-02T02:25:34;6.80;99.90
69533;DHT22;56729;52.036;5.332;2023-04-02T02:26:38;6.70;99.90
69533;DHT22;56729;52.036;5.332;2023-04-02T02:27:56;6.80;99.90
69533;DHT22;56729;52.036;5.332;2023-04-02T02:28:59;6.70;99.90
69533;DHT22;56729;52.036;5.332;2023-04-02T02:31:31;6.70;99.90
69533;DHT22;56729;52.036;5.332;2023-04-02T02:32:41;6.70;99.90
69533;DHT22;56729;52.036;5.332;2023-04-02T02:33:52;6.60;99.90
69533;DHT22;56729;52.036;5.332;2023-04-02T02:35:06;6.70;99.90
69533;DHT22;56729;52.036;5.332;2023-04-02T02:36:23;6.60;99.90
69533;DHT22;56729;52.036;5.332;2023-04-02T02:37:30;6.60;99.90
69533;DHT22;56729;52.036;5.332;2023-04-02T02:40:11;6.60;99.90
69533;DHT22;56729;52.036;5.332;2023-04-02T02:42:35;6.60;99.90
69533;DHT22;56729;52.036;5.332;2023-04-02T02:43:42;6.60;99.90
69533;DHT22;56729;52.036;5.332;2023-04-02T02:44:47;6.60;99.90
69533;DHT22;56729;52.036;5.332;2023-04-02T02:45:51;6.60;99.90
69533;DHT22;56729;52.036;5.332;2023-04-02T02:47:01;6.60;99.90
69533;DHT22;56729;52.036;5.332;2023-04-02T02:48:12;6.60;99.90
69533;DHT22;56729;52.036;5.332;2023-04-02T02:49:19;6.60;99.90
69533;DHT22;56729;52.036;5.332;2023-04-02T02:50:27;6.60;99.90
69533;DHT22;56729;52.036;5.332;2023-04-02T02:51:47;6.60;99.90
69533;DHT22;56729;52.036;5.332;2023-04-02T02:52:58;6.70;99.90
69533;DHT22;56729;52.036;5.332;2023-04-02T02:54:04;6.60;99.90
69533;DHT22;56729;52.036;5.332;2023-04-02T02:55:11;6.70;99.90
69533;DHT22;56729;52.036;5.332;2023-04-02T02:56:22;6.70;99.90
69533;DHT22;56729;52.036;5.332;2023-04-02T02:57:28;6.60;99.90
69533;DHT22;56729;52.036;5.332;2023-04-02T02:58:33;6.60;99.90
69533;DHT22;56729;52.036;5.332;2023-04-02T02:59:52;6.60;99.90
69533;DHT22;56729;52.036;5.332;2023-04-02T03:00:55;6.60;99.90
69533;DHT22;56729;52.036;5.332;2023-04-02T03:01:58;6.60;99.90
69533;DHT22;56729;52.036;5.332;2023-04-02T03:03:05;6.60;99.90
69533;DHT22;56729;52.036;5.332;2023-04-02T03:04:08;6.50;99.90
69533;DHT22;56729;52.036;5.332;2023-04-02T03:05:18;6.50;99.90
69533;DHT22;56729;52.036;5.332;2023-04-02T03:06:23;6.50;99.90
69533;DHT22;56729;52.036;5.332;2023-04-02T03:07:30;6.50;99.90
69533;DHT22;56729;52.036;5.332;2023-04-02T03:08:53;6.50;99.90
69533;DHT22;56729;52.036;5.332;2023-04-02T03:11:39;6.50;99.90
69533;DHT22;56729;52.036;5.332;2023-04-02T03:12:55;6.50;99.90
69533;DHT22;56729;52.036;5.332;2023-04-02T03:14:14;6.50;99.90
69533;DHT22;56729;52.036;5.332;2023-04-02T03:16:39;6.50;99.90
69533;DHT22;56729;52.036;5.332;2023-04-02T03:17:54;6.40;99.90
69533;DHT22;56729;52.036;5.332;2023-04-02T03:19:04;6.40;99.90
69533;DHT22;56729;52.036;5.332;2023-04-02T03:21:19;6.40;99.90
69533;DHT22;56729;52.036;5.332;2023-04-02T03:22:28;6.40;99.90
69533;DHT22;56729;52.036;5.332;2023-04-02T03:23:37;6.40;99.90
69533;DHT22;56729;52.036;5.332;2023-04-02T03:25:00;6.40;99.90
69533;DHT22;56729;52.036;5.332;2023-04-02T03:26:17;6.40;99.90
69533;DHT22;56729;52.036;5.332;2023-04-02T03:27:25;6.40;99.90
69533;DHT22;56729;52.036;5.332;2023-04-02T03:28:31;6.40;99.90
69533;DHT22;56729;52.036;5.332;2023-04-02T03:29:40;6.40;99.90
69533;DHT22;56729;52.036;5.332;2023-04-02T03:31:04;6.40;99.90
69533;DHT22;56729;52.036;5.332;2023-04-02T03:32:18;6.40;99.90
69533;DHT22;56729;52.036;5.332;2023-04-02T03:33:28;6.40;99.90
69533;DHT22;56729;52.036;5.332;2023-04-02T03:34:40;6.40;99.90
69533;DHT22;56729;52.036;5.332;2023-04-02T03:35:55;6.40;99.90
69533;DHT22;56729;52.036;5.332;2023-04-02T03:37:06;6.30;99.90
69533;DHT22;56729;52.036;5.332;2023-04-02T03:39:41;6.30;99.90
69533;DHT22;56729;52.036;5.332;2023-04-02T03:41:03;6.30;99.90
69533;DHT22;56729;52.036;5.332;2023-04-02T03:43:22;6.20;99.90
69533;DHT22;56729;52.036;5.332;2023-04-02T03:44:43;6.20;99.90
69533;DHT22;56729;52.036;5.332;2023-04-02T03:45:50;6.20;99.90
69533;DHT22;56729;52.036;5.332;2023-04-02T03:48:33;6.20;99.90
69533;DHT22;56729;52.036;5.332;2023-04-02T03:49:59;6.20;99.90
69533;DHT22;56729;52.036;5.332;2023-04-02T03:51:13;6.20;99.90
69533;DHT22;56729;52.036;5.332;2023-04-02T03:52:24;6.20;99.90
69533;DHT22;56729;52.036;5.332;2023-04-02T03:53:28;6.20;99.90
69533;DHT22;56729;52.036;5.332;2023-04-02T03:54:33;6.20;99.90
69533;DHT22;56729;52.036;5.332;2023-04-02T03:55:36;6.20;99.90
69533;DHT22;56729;52.036;5.332;2023-04-02T03:56:43;6.20;99.90
69533;DHT22;56729;52.036;5.332;2023-04-02T03:58:08;6.20;99.90
69533;DHT22;56729;52.036;5.332;2023-04-02T03:59:33;6.10;99.90
69533;DHT22;56729;52.036;5.332;2023-04-02T04:02:32;6.10;99.90
69533;DHT22;56729;52.036;5.332;2023-04-02T04:03:55;6.10;99.90
69533;DHT22;56729;52.036;5.332;2023-04-02T04:04:59;6.10;99.90
69533;DHT22;56729;52.036;5.332;2023-04-02T04:06:09;6.10;99.90
69533;DHT22;56729;52.036;5.332;2023-04-02T04:07:32;6.10;99.90
69533;DHT22;56729;52.036;5.332;2023-04-02T04:08:49;6.10;99.90
69533;DHT22;56729;52.036;5.332;2023-04-02T04:09:53;6.10;99.90
69533;DHT22;56729;52.036;5.332;2023-04-02T04:10:59;6.10;99.90
69533;DHT22;56729;52.036;5.332;2023-04-02T04:12:24;6.10;99.90
69533;DHT22;56729;52.036;5.332;2023-04-02T04:13:34;6.10;99.90
69533;DHT22;56729;52.036;5.332;2023-04-02T04:14:41;6.10;99.90
69533;DHT22;56729;52.036;5.332;2023-04-02T04:15:59;6.10;99.90
69533;DHT22;56729;52.036;5.332;2023-04-02T04:18:41;6.00;99.90
69533;DHT22;56729;52.036;5.332;2023-04-02T04:21:35;6.00;99.90
69533;DHT22;56729;52.036;5.332;2023-04-02T04:22:47;6.00;99.90
69533;DHT22;56729;52.036;5.332;2023-04-02T04:23:56;6.00;99.90
69533;DHT22;56729;52.036;5.332;2023-04-02T04:25:16;6.00;99.90
69533;DHT22;56729;52.036;5.332;2023-04-02T04:26:20;6.00;99.90
69533;DHT22;56729;52.036;5.332;2023-04-02T04:27:42;6.00;99.90
69533;DHT22;56729;52.036;5.332;2023-04-02T04:30:28;6.00;99.90
69533;DHT22;56729;52.036;5.332;2023-04-02T04:31:48;6.00;99.90
69533;DHT22;56729;52.036;5.332;2023-04-02T04:32:56;6.00;99.90
69533;DHT22;56729;52.036;5.332;2023-04-02T04:34:06;5.90;99.90
69533;DHT22;56729;52.036;5.332;2023-04-02T04:35:32;5.90;99.90
69533;DHT22;56729;52.036;5.332;2023-04-02T04:36:43;5.90;99.90
69533;DHT22;56729;52.036;5.332;2023-04-02T04:38:04;5.90;99.90
69533;DHT22;56729;52.036;5.332;2023-04-02T04:39:15;5.90;99.90
69533;DHT22;56729;52.036;5.332;2023-04-02T04:40:36;6.00;99.90
69533;DHT22;56729;52.036;5.332;2023-04-02T04:41:43;5.90;99.90
69533;DHT22;56729;52.036;5.332;2023-04-02T04:42:49;6.00;99.90
69533;DHT22;56729;52.036;5.332;2023-04-02T04:45:47;5.90;99.90
69533;DHT22;56729;52.036;5.332;2023-04-02T04:47:00;5.90;99.90
69533;DHT22;56729;52.036;5.332;2023-04-02T04:48:41;5.90;99.90
69533;DHT22;56729;52.036;5.332;2023-04-02T04:49:51;5.90;99.90
69533;DHT22;56729;52.036;5.332;2023-04-02T04:51:00;5.90;99.90
69533;DHT22;56729;52.036;5.332;2023-04-02T04:52:21;5.90;99.90
69533;DHT22;56729;52.036;5.332;2023-04-02T04:53:27;5.90;99.90
69533;DHT22;56729;52.036;5.332;2023-04-02T04:54:31;5.80;99.90
69533;DHT22;56729;52.036;5.332;2023-04-02T04:55:38;5.80;99.90
69533;DHT22;56729;52.036;5.332;2023-04-02T04:56:55;5.80;99.90
69533;DHT22;56729;52.036;5.332;2023-04-02T04:59:41;5.70;99.90
69533;DHT22;56729;52.036;5.332;2023-04-02T05:02:11;5.70;99.90
69533;DHT22;56729;52.036;5.332;2023-04-02T05:03:54;5.70;99.90
69533;DHT22;56729;52.036;5.332;2023-04-02T05:04:59;5.60;99.90
69533;DHT22;56729;52.036;5.332;2023-04-02T05:06:23;5.60;99.90
69533;DHT22;56729;52.036;5.332;2023-04-02T05:07:29;5.50;99.90
69533;DHT22;56729;52.036;5.332;2023-04-02T05:08:34;5.50;99.90
69533;DHT22;56729;52.036;5.332;2023-04-02T05:10:10;5.40;99.90
69533;DHT22;56729;52.036;5.332;2023-04-02T05:11:25;5.40;99.90
69533;DHT22;56729;52.036;5.332;2023-04-02T05:12:49;5.40;99.90
69533;DHT22;56729;52.036;5.332;2023-04-02T05:14:02;5.40;99.90
69533;DHT22;56729;52.036;5.332;2023-04-02T05:16:42;5.40;99.90
69533;DHT22;56729;52.036;5.332;2023-04-02T05:21:19;5.30;99.90
69533;DHT22;56729;52.036;5.332;2023-04-02T05:22:41;5.30;99.90
69533;DHT22;56729;52.036;5.332;2023-04-02T05:24:32;5.30;99.90
69533;DHT22;56729;52.036;5.332;2023-04-02T05:25:50;5.20;99.90
69533;DHT22;56729;52.036;5.332;2023-04-02T05:26:57;5.20;99.90
69533;DHT22;56729;52.036;5.332;2023-04-02T05:28:24;5.20;99.90
69533;DHT22;56729;52.036;5.332;2023-04-02T05:29:33;5.10;99.90
69533;DHT22;56729;52.036;5.332;2023-04-02T05:33:25;5.10;99.90
69533;DHT22;56729;52.036;5.332;2023-04-02T05:34:36;5.10;99.90
69533;DHT22;56729;52.036;5.332;2023-04-02T05:35:42;5.10;99.90
69533;DHT22;56729;52.036;5.332;2023-04-02T05:36:45;5.10;99.90
69533;DHT22;56729;52.036;5.332;2023-04-02T05:37:48;5.10;99.90
69533;DHT22;56729;52.036;5.332;2023-04-02T05:38:52;5.10;99.90
69533;DHT22;56729;52.036;5.332;2023-04-02T05:40:13;5.10;99.90
69533;DHT22;56729;52.036;5.332;2023-04-02T05:42:33;5.00;99.90
69533;DHT22;56729;52.036;5.332;2023-04-02T05:43:45;5.00;99.90
69533;DHT22;56729;52.036;5.332;2023-04-02T05:44:58;5.00;99.90
69533;DHT22;56729;52.036;5.332;2023-04-02T05:46:11;5.00;99.90
69533;DHT22;56729;52.036;5.332;2023-04-02T05:47:22;5.00;99.90
69533;DHT22;56729;52.036;5.332;2023-04-02T05:48:35;5.00;99.90
69533;DHT22;56729;52.036;5.332;2023-04-02T05:50:53;4.90;99.90
69533;DHT22;56729;52.036;5.332;2023-04-02T05:52:02;4.90;99.90
69533;DHT22;56729;52.036;5.332;2023-04-02T05:53:07;4.90;99.90
69533;DHT22;56729;52.036;5.332;2023-04-02T05:54:21;4.80;99.90
69533;DHT22;56729;52.036;5.332;2023-04-02T05:55:36;4.80;99.90
69533;DHT22;56729;52.036;5.332;2023-04-02T05:56:42;4.80;99.90
69533;DHT22;56729;52.036;5.332;2023-04-02T05:57:51;4.80;99.90
69533;DHT22;56729;52.036;5.332;2023-04-02T05:59:18;4.70;99.90
69533;DHT22;56729;52.036;5.332;2023-04-02T06:01:56;4.70;99.90
69533;DHT22;56729;52.036;5.332;2023-04-02T06:04:57;4.70;99.90
69533;DHT22;56729;52.036;5.332;2023-04-02T06:06:13;4.70;99.90
69533;DHT22;56729;52.036;5.332;2023-04-02T06:07:22;4.60;99.90
69533;DHT22;56729;52.036;5.332;2023-04-02T06:08:33;4.60;99.90
69533;DHT22;56729;52.036;5.332;2023-04-02T06:09:53;4.60;99.90
69533;DHT22;56729;52.036;5.332;2023-04-02T06:11:19;4.60;99.90
69533;DHT22;56729;52.036;5.332;2023-04-02T06:13:46;4.60;99.90
69533;DHT22;56729;52.036;5.332;2023-04-02T06:14:48;4.60;99.90
69533;DHT22;56729;52.036;5.332;2023-04-02T06:15:50;4.60;99.90
69533;DHT22;56729;52.036;5.332;2023-04-02T06:16:57;4.60;99.90
69533;DHT22;56729;52.036;5.332;2023-04-02T06:19:07;4.60;99.90
69533;DHT22;56729;52.036;5.332;2023-04-02T06:20:14;4.60;99.90
69533;DHT22;56729;52.036;5.332;2023-04-02T06:21:20;4.60;99.90
69533;DHT22;56729;52.036;5.332;2023-04-02T06:22:35;4.60;99.90
69533;DHT22;56729;52.036;5.332;2023-04-02T06:24:00;4.60;99.90
69533;DHT22;56729;52.036;5.332;2023-04-02T06:25:14;4.60;99.90
69533;DHT22;56729;52.036;5.332;2023-04-02T06:27:27;4.70;99.90
69533;DHT22;56729;52.036;5.332;2023-04-02T06:28:45;4.60;99.90
69533;DHT22;56729;52.036;5.332;2023-04-02T06:29:51;4.70;99.90
69533;DHT22;56729;52.036;5.332;2023-04-02T06:31:00;4.60;99.90
69533;DHT22;56729;52.036;5.332;2023-04-02T06:32:10;4.60;99.90
69533;DHT22;56729;52.036;5.332;2023-04-02T06:33:16;4.60;99.90
69533;DHT22;56729;52.036;5.332;2023-04-02T06:34:21;4.60;99.90
69533;DHT22;56729;52.036;5.332;2023-04-02T06:35:42;4.60;99.90
69533;DHT22;56729;52.036;5.332;2023-04-02T06:37:04;4.60;99.90
69533;DHT22;56729;52.036;5.332;2023-04-02T06:38:19;4.60;99.90
69533;DHT22;56729;52.036;5.332;2023-04-02T06:39:25;4.60;99.90
69533;DHT22;56729;52.036;5.332;2023-04-02T06:40:37;4.60;99.90
69533;DHT22;56729;52.036;5.332;2023-04-02T06:41:45;4.60;99.90
69533;DHT22;56729;52.036;5.332;2023-04-02T06:43:05;4.60;99.90
69533;DHT22;56729;52.036;5.332;2023-04-02T06:44:31;4.60;99.90
69533;DHT22;56729;52.036;5.332;2023-04-02T06:45:48;4.60;99.90
69533;DHT22;56729;52.036;5.332;2023-04-02T06:47:15;4.60;99.90
69533;DHT22;56729;52.036;5.332;2023-04-02T06:48:23;4.60;99.90
69533;DHT22;56729;52.036;5.332;2023-04-02T06:49:39;4.60;99.90
69533;DHT22;56729;52.036;5.332;2023-04-02T06:51:08;4.60;99.90
69533;DHT22;56729;52.036;5.332;2023-04-02T06:52:23;4.60;99.90
69533;DHT22;56729;52.036;5.332;2023-04-02T06:53:34;4.70;99.90
69533;DHT22;56729;52.036;5.332;2023-04-02T06:54:38;4.70;99.90
69533;DHT22;56729;52.036;5.332;2023-04-02T06:56:04;4.70;99.90
69533;DHT22;56729;52.036;5.332;2023-04-02T06:57:08;4.70;99.90
69533;DHT22;56729;52.036;5.332;2023-04-02T06:58:15;4.70;99.90
69533;DHT22;56729;52.036;5.332;2023-04-02T06:59:18;4.70;99.90
69533;DHT22;56729;52.036;5.332;2023-04-02T07:01:44;4.70;99.90
69533;DHT22;56729;52.036;5.332;2023-04-02T07:02:47;4.70;99.90
69533;DHT22;56729;52.036;5.332;2023-04-02T07:03:51;4.70;99.90
69533;DHT22;56729;52.036;5.332;2023-04-02T07:05:08;4.70;99.90
69533;DHT22;56729;52.036;5.332;2023-04-02T07:06:17;4.80;99.90
69533;DHT22;56729;52.036;5.332;2023-04-02T07:07:21;4.80;99.90
69533;DHT22;56729;52.036;5.332;2023-04-02T07:08:23;4.80;99.90
69533;DHT22;56729;52.036;5.332;2023-04-02T07:09:26;4.80;99.90
69533;DHT22;56729;52.036;5.332;2023-04-02T07:10:31;4.80;99.90
69533;DHT22;56729;52.036;5.332;2023-04-02T07:11:33;4.90;99.90
69533;DHT22;56729;52.036;5.332;2023-04-02T07:12:38;4.90;99.90
69533;DHT22;56729;52.036;5.332;2023-04-02T07:13:40;4.90;99.90
69533;DHT22;56729;52.036;5.332;2023-04-02T07:14:42;4.90;99.90
69533;DHT22;56729;52.036;5.332;2023-04-02T07:15:46;5.00;99.90
69533;DHT22;56729;52.036;5.332;2023-04-02T07:16:50;5.00;99.90
69533;DHT22;56729;52.036;5.332;2023-04-02T07:17:53;5.00;99.90
69533;DHT22;56729;52.036;5.332;2023-04-02T07:18:58;5.10;99.90
69533;DHT22;56729;52.036;5.332;2023-04-02T07:20:03;5.10;99.90
69533;DHT22;56729;52.036;5.332;2023-04-02T07:21:05;5.20;99.90
69533;DHT22;56729;52.036;5.332;2023-04-02T07:22:07;5.20;99.90
69533;DHT22;56729;52.036;5.332;2023-04-02T07:23:13;5.20;99.90
69533;DHT22;56729;52.036;5.332;2023-04-02T07:24:17;5.20;99.90
69533;DHT22;56729;52.036;5.332;2023-04-02T07:25:19;5.30;99.90
69533;DHT22;56729;52.036;5.332;2023-04-02T07:26:24;5.30;99.90
69533;DHT22;56729;52.036;5.332;2023-04-02T07:27:28;5.20;99.90
69533;DHT22;56729;52.036;5.332;2023-04-02T07:28:31;5.20;99.90
69533;DHT22;56729;52.036;5.332;2023-04-02T07:29:32;5.20;99.90
69533;DHT22;56729;52.036;5.332;2023-04-02T07:30:34;5.20;99.90
69533;DHT22;56729;52.036;5.332;2023-04-02T07:31:37;5.20;99.90
69533;DHT22;56729;52.036;5.332;2023-04-02T07:32:41;5.20;99.90
69533;DHT22;56729;52.036;5.332;2023-04-02T07:33:43;5.20;99.90
69533;DHT22;56729;52.036;5.332;2023-04-02T07:34:45;5.20;99.90
69533;DHT22;56729;52.036;5.332;2023-04-02T07:35:48;5.10;99.90
69533;DHT22;56729;52.036;5.332;2023-04-02T07:36:51;5.10;99.90
69533;DHT22;56729;52.036;5.332;2023-04-02T07:37:53;5.10;99.90
69533;DHT22;56729;52.036;5.332;2023-04-02T07:38:55;5.10;99.90
69533;DHT22;56729;52.036;5.332;2023-04-02T07:39:57;5.10;99.90
69533;DHT22;56729;52.036;5.332;2023-04-02T07:41:04;5.10;99.90
69533;DHT22;56729;52.036;5.332;2023-04-02T07:42:06;5.10;99.90
69533;DHT22;56729;52.036;5.332;2023-04-02T07:43:08;5.10;99.90
69533;DHT22;56729;52.036;5.332;2023-04-02T07:44:11;5.10;99.90
69533;DHT22;56729;52.036;5.332;2023-04-02T07:45:13;5.10;99.90
69533;DHT22;56729;52.036;5.332;2023-04-02T07:46:15;5.10;99.90
69533;DHT22;56729;52.036;5.332;2023-04-02T07:47:18;5.10;99.90
69533;DHT22;56729;52.036;5.332;2023-04-02T07:48:20;5.10;99.90
69533;DHT22;56729;52.036;5.332;2023-04-02T07:49:22;5.10;99.90
69533;DHT22;56729;52.036;5.332;2023-04-02T07:50:24;5.10;99.90
69533;DHT22;56729;52.036;5.332;2023-04-02T07:51:26;5.10;99.90
69533;DHT22;56729;52.036;5.332;2023-04-02T07:52:27;5.10;99.90
69533;DHT22;56729;52.036;5.332;2023-04-02T07:53:32;5.00;99.90
69533;DHT22;56729;52.036;5.332;2023-04-02T07:54:34;5.00;99.90
69533;DHT22;56729;52.036;5.332;2023-04-02T07:55:36;5.00;99.90
69533;DHT22;56729;52.036;5.332;2023-04-02T07:56:38;5.00;99.90
69533;DHT22;56729;52.036;5.332;2023-04-02T07:57:47;5.00;99.90
69533;DHT22;56729;52.036;5.332;2023-04-02T07:58:50;5.00;99.90
69533;DHT22;56729;52.036;5.332;2023-04-02T07:59:52;5.00;99.90
69533;DHT22;56729;52.036;5.332;2023-04-02T08:00:58;5.00;99.90
69533;DHT22;56729;52.036;5.332;2023-04-02T08:02:00;5.00;99.90
69533;DHT22;56729;52.036;5.332;2023-04-02T08:03:03;5.10;99.90
69533;DHT22;56729;52.036;5.332;2023-04-02T08:04:05;5.10;99.90
69533;DHT22;56729;52.036;5.332;2023-04-02T08:05:09;5.10;99.90
69533;DHT22;56729;52.036;5.332;2023-04-02T08:06:11;5.10;99.90
69533;DHT22;56729;52.036;5.332;2023-04-02T08:07:13;5.10;99.90
69533;DHT22;56729;52.036;5.332;2023-04-02T08:08:14;5.20;99.90
69533;DHT22;56729;52.036;5.332;2023-04-02T08:09:16;5.10;99.90
69533;DHT22;56729;52.036;5.332;2023-04-02T08:10:18;5.10;99.90
69533;DHT22;56729;52.036;5.332;2023-04-02T08:11:20;5.10;99.90
69533;DHT22;56729;52.036;5.332;2023-04-02T08:12:22;5.10;99.90
69533;DHT22;56729;52.036;5.332;2023-04-02T08:13:24;5.10;99.90
69533;DHT22;56729;52.036;5.332;2023-04-02T08:14:26;5.10;99.90
69533;DHT22;56729;52.036;5.332;2023-04-02T08:15:27;5.10;99.90
69533;DHT22;56729;52.036;5.332;2023-04-02T08:16:52;5.10;99.90
69533;DHT22;56729;52.036;5.332;2023-04-02T08:17:54;5.10;99.90
69533;DHT22;56729;52.036;5.332;2023-04-02T08:18:56;5.10;99.90
69533;DHT22;56729;52.036;5.332;2023-04-02T08:19:58;5.00;99.90
69533;DHT22;56729;52.036;5.332;2023-04-02T08:21:06;5.00;99.90
69533;DHT22;56729;52.036;5.332;2023-04-02T08:22:10;5.00;99.90
69533;DHT22;56729;52.036;5.332;2023-04-02T08:23:15;5.00;99.90
69533;DHT22;56729;52.036;5.332;2023-04-02T08:24:18;5.00;99.90
69533;DHT22;56729;52.036;5.332;2023-04-02T08:25:21;5.00;99.90
69533;DHT22;56729;52.036;5.332;2023-04-02T08:26:23;5.10;99.90